sensor_id;sensor_type;location;lat;lon;timestamp;pressure;altitude;pressure_sealevel;temperature;humidity
51239;BME280;38154;47.548;18.828;2022-08-11T00:00:56;99239.41;;;20.11;47.42
51239;BME280;38154;47.548;18.828;2022-08-11T00:03:23;99235.88;;;20.12;47.43
51239;BME280;38154;47.548;18.828;2022-08-11T00:05:52;99238.56;;;20.10;47.51
51239;BME280;38154;47.548;18.828;2022-08-11T00:08:27;99240.31;;;20.11;47.52
51239;BME280;38154;47.548;18.828;2022-08-11T00:10:57;99222.63;;;20.12;47.54
51239;BME280;38154;47.548;18.828;2022-08-11T00:13:35;99225.28;;;20.12;47.56
51239;BME280;38154;47.548;18.828;2022-08-11T00:16:03;99227.94;;;20.12;47.73
51239;BME280;38154;47.548;18.828;2022-08-11T00:18:38;99231.37;;;20.14;47.66
51239;BME280;38154;47.548;18.828;2022-08-11T00:21:05;99218.19;;;20.12;47.78
51239;BME280;38154;47.548;18.828;2022-08-11T00:23:32;99213.16;;;20.05;48.02
51239;BME280;38154;47.548;18.828;2022-08-11T00:25:59;99214.06;;;20.04;48.10
51239;BME280;38154;47.548;18.828;2022-08-11T00:28:27;99205.31;;;20.01;48.18
51239;BME280;38154;47.548;18.828;2022-08-11T00:30:55;99205.25;;;20.03;48.25
51239;BME280;38154;47.548;18.828;2022-08-11T00:33:24;99201.72;;;20.02;48.37
51239;BME280;38154;47.548;18.828;2022-08-11T00:35:57;99202.75;;;19.98;48.48
51239;BME280;38154;47.548;18.828;2022-08-11T00:38:25;99209.06;;;19.94;48.64
51239;BME280;38154;47.548;18.828;2022-08-11T00:41:00;99203.84;;;19.91;48.76
51239;BME280;38154;47.548;18.828;2022-08-11T00:43:48;99206.59;;;19.88;48.92
51239;BME280;38154;47.548;18.828;2022-08-11T00:57:31;99201.22;;;19.91;49.20
51239;BME280;38154;47.548;18.828;2022-08-11T01:00:14;99207.22;;;19.96;49.13
51239;BME280;38154;47.548;18.828;2022-08-11T01:08:45;99203.81;;;19.93;49.44
51239;BME280;38154;47.548;18.828;2022-08-11T01:11:43;99202.88;;;19.94;49.44
51239;BME280;38154;47.548;18.828;2022-08-11T01:14:21;99193.31;;;19.90;49.66
51239;BME280;38154;47.548;18.828;2022-08-11T01:20:44;99196.97;;;19.84;49.85
51239;BME280;38154;47.548;18.828;2022-08-11T01:37:10;99192.87;;;19.72;50.23
51239;BME280;38154;47.548;18.828;2022-08-11T01:48:16;99195.75;;;19.66;50.42
51239;BME280;38154;47.548;18.828;2022-08-11T01:51:07;99198.59;;;19.58;50.69
51239;BME280;38154;47.548;18.828;2022-08-11T01:53:46;99192.47;;;19.56;50.79
51239;BME280;38154;47.548;18.828;2022-08-11T01:56:37;99191.72;;;19.53;50.92
51239;BME280;38154;47.548;18.828;2022-08-11T01:59:27;99199.72;;;19.50;51.10
51239;BME280;38154;47.548;18.828;2022-08-11T02:11:04;99209.00;;;19.33;51.76
51239;BME280;38154;47.548;18.828;2022-08-11T02:14:16;99195.81;;;19.32;51.94
51239;BME280;38154;47.548;18.828;2022-08-11T02:22:51;99197.69;;;19.28;52.12
51239;BME280;38154;47.548;18.828;2022-08-11T02:31:33;99198.03;;;19.16;52.53
51239;BME280;38154;47.548;18.828;2022-08-11T02:34:30;99209.50;;;19.15;52.83
51239;BME280;38154;47.548;18.828;2022-08-11T02:37:09;99206.22;;;19.05;53.08
51239;BME280;38154;47.548;18.828;2022-08-11T02:40:15;99212.72;;;19.26;52.38
51239;BME280;38154;47.548;18.828;2022-08-11T02:50:37;99205.50;;;18.98;53.87
51239;BME280;38154;47.548;18.828;2022-08-11T02:53:17;99203.78;;;18.97;53.57
51239;BME280;38154;47.548;18.828;2022-08-11T02:56:05;99207.56;;;18.87;54.06
51239;BME280;38154;47.548;18.828;2022-08-11T03:13:07;99206.44;;;18.24;56.55
51239;BME280;38154;47.548;18.828;2022-08-11T03:16:17;99214.13;;;18.33;56.16
51239;BME280;38154;47.548;18.828;2022-08-11T03:22:18;99206.69;;;18.11;57.38
51239;BME280;38154;47.548;18.828;2022-08-11T03:25:22;99195.59;;;17.97;58.18
51239;BME280;38154;47.548;18.828;2022-08-11T03:30:50;99204.50;;;17.91;57.71
51239;BME280;38154;47.548;18.828;2022-08-11T03:33:22;99203.50;;;17.97;57.68
51239;BME280;38154;47.548;18.828;2022-08-11T03:41:48;99199.41;;;17.82;58.56
51239;BME280;38154;47.548;18.828;2022-08-11T03:52:50;99215.00;;;17.93;58.46
51239;BME280;38154;47.548;18.828;2022-08-11T04:01:40;99213.28;;;17.92;58.71
51239;BME280;38154;47.548;18.828;2022-08-11T04:12:40;99214.00;;;18.00;58.69
51239;BME280;38154;47.548;18.828;2022-08-11T04:15:32;99213.25;;;17.93;59.08
51239;BME280;38154;47.548;18.828;2022-08-11T04:25:04;99211.56;;;18.67;55.67
51239;BME280;38154;47.548;18.828;2022-08-11T04:30:53;99212.47;;;19.02;54.50
51239;BME280;38154;47.548;18.828;2022-08-11T04:38:56;99229.13;;;18.31;58.36
51239;BME280;38154;47.548;18.828;2022-08-11T04:42:06;99225.38;;;18.41;58.02
51239;BME280;38154;47.548;18.828;2022-08-11T04:54:31;99225.44;;;18.76;57.80
51239;BME280;38154;47.548;18.828;2022-08-11T05:00:40;99230.19;;;18.99;57.63
51239;BME280;38154;47.548;18.828;2022-08-11T05:03:50;99226.91;;;19.22;56.85
51239;BME280;38154;47.548;18.828;2022-08-11T05:07:42;99230.56;;;19.51;55.96
51239;BME280;38154;47.548;18.828;2022-08-11T05:15:03;99231.37;;;20.72;52.22
51239;BME280;38154;47.548;18.828;2022-08-11T05:18:14;99231.28;;;20.47;52.98
51239;BME280;38154;47.548;18.828;2022-08-11T05:21:05;99230.66;;;20.67;52.43
51239;BME280;38154;47.548;18.828;2022-08-11T05:24:07;99238.75;;;20.89;52.09
51239;BME280;38154;47.548;18.828;2022-08-11T05:26:58;99245.78;;;21.17;51.94
51239;BME280;38154;47.548;18.828;2022-08-11T05:30:08;99246.47;;;21.48;50.12
51239;BME280;38154;47.548;18.828;2022-08-11T05:33:02;99244.75;;;21.95;48.80
51239;BME280;38154;47.548;18.828;2022-08-11T05:35:49;99252.03;;;22.37;45.96
51239;BME280;38154;47.548;18.828;2022-08-11T05:38:23;99251.31;;;22.77;45.27
51239;BME280;38154;47.548;18.828;2022-08-11T05:41:12;99252.47;;;23.14;42.10
51239;BME280;38154;47.548;18.828;2022-08-11T05:43:59;99248.19;;;23.10;42.47
51239;BME280;38154;47.548;18.828;2022-08-11T05:46:44;99253.31;;;23.36;41.98
51239;BME280;38154;47.548;18.828;2022-08-11T05:49:31;99246.34;;;23.53;41.72
51239;BME280;38154;47.548;18.828;2022-08-11T05:52:24;99252.56;;;23.94;41.19
51239;BME280;38154;47.548;18.828;2022-08-11T05:55:09;99246.66;;;24.25;39.47
51239;BME280;38154;47.548;18.828;2022-08-11T05:57:56;99252.75;;;23.89;39.81
51239;BME280;38154;47.548;18.828;2022-08-11T06:00:24;99247.78;;;23.61;40.62
51239;BME280;38154;47.548;18.828;2022-08-11T06:02:56;99251.88;;;23.28;40.62
51239;BME280;38154;47.548;18.828;2022-08-11T06:05:24;99249.13;;;23.50;40.46
51239;BME280;38154;47.548;18.828;2022-08-11T06:07:56;99252.56;;;23.73;39.35
51239;BME280;38154;47.548;18.828;2022-08-11T06:10:25;99249.62;;;24.00;38.91
51239;BME280;38154;47.548;18.828;2022-08-11T06:12:53;99250.38;;;24.40;38.96
51239;BME280;38154;47.548;18.828;2022-08-11T06:15:20;99251.69;;;24.50;37.95
51239;BME280;38154;47.548;18.828;2022-08-11T06:17:47;99256.03;;;25.07;36.55
51239;BME280;38154;47.548;18.828;2022-08-11T06:20:16;99253.03;;;24.78;37.33
51239;BME280;38154;47.548;18.828;2022-08-11T06:22:55;99264.56;;;24.21;38.09
51239;BME280;38154;47.548;18.828;2022-08-11T06:25:29;99251.09;;;25.16;36.50
51239;BME280;38154;47.548;18.828;2022-08-11T06:27:55;99249.38;;;28.01;32.26
51239;BME280;38154;47.548;18.828;2022-08-11T06:30:32;99253.53;;;28.75;29.66
51239;BME280;38154;47.548;18.828;2022-08-11T06:33:00;99252.09;;;28.97;29.38
51239;BME280;38154;47.548;18.828;2022-08-11T06:35:34;99258.19;;;28.59;29.68
51239;BME280;38154;47.548;18.828;2022-08-11T06:38:12;99266.09;;;27.75;30.98
51239;BME280;38154;47.548;18.828;2022-08-11T06:40:53;99261.87;;;30.41;27.18
51239;BME280;38154;47.548;18.828;2022-08-11T06:46:14;99249.09;;;31.86;24.77
51239;BME280;38154;47.548;18.828;2022-08-11T06:48:42;99251.50;;;31.67;25.07
51239;BME280;38154;47.548;18.828;2022-08-11T06:51:10;99255.31;;;32.98;23.69
51239;BME280;38154;47.548;18.828;2022-08-11T06:53:56;99246.22;;;32.88;23.08
51239;BME280;38154;47.548;18.828;2022-08-11T06:56:24;99249.53;;;30.62;26.01
51239;BME280;38154;47.548;18.828;2022-08-11T06:59:11;99255.19;;;31.19;24.88
51239;BME280;38154;47.548;18.828;2022-08-11T07:02:14;99261.09;;;28.96;28.46
51239;BME280;38154;47.548;18.828;2022-08-11T07:04:48;99239.25;;;31.62;24.84
51239;BME280;38154;47.548;18.828;2022-08-11T07:13:42;99242.81;;;33.60;21.81
51239;BME280;38154;47.548;18.828;2022-08-11T07:16:28;99241.22;;;34.70;21.09
51239;BME280;38154;47.548;18.828;2022-08-11T07:19:01;99245.63;;;36.62;18.96
51239;BME280;38154;47.548;18.828;2022-08-11T07:21:46;99252.34;;;36.85;18.31
51239;BME280;38154;47.548;18.828;2022-08-11T07:27:43;99247.63;;;34.49;20.04
51239;BME280;38154;47.548;18.828;2022-08-11T07:30:28;99247.34;;;36.07;18.80
51239;BME280;38154;47.548;18.828;2022-08-11T07:32:57;99233.00;;;36.88;17.64
51239;BME280;38154;47.548;18.828;2022-08-11T07:35:33;99243.22;;;36.03;18.24
51239;BME280;38154;47.548;18.828;2022-08-11T07:38:04;99254.03;;;35.85;18.43
51239;BME280;38154;47.548;18.828;2022-08-11T07:40:31;99240.84;;;34.94;19.45
51239;BME280;38154;47.548;18.828;2022-08-11T07:42:58;99241.66;;;36.00;18.66
51239;BME280;38154;47.548;18.828;2022-08-11T07:45:26;99243.50;;;36.37;18.14
51239;BME280;38154;47.548;18.828;2022-08-11T07:48:13;99243.59;;;35.71;18.42
51239;BME280;38154;47.548;18.828;2022-08-11T07:50:58;99243.28;;;36.49;17.56
51239;BME280;38154;47.548;18.828;2022-08-11T07:53:43;99248.28;;;37.25;17.03
51239;BME280;38154;47.548;18.828;2022-08-11T07:56:09;99247.97;;;37.28;16.84
51239;BME280;38154;47.548;18.828;2022-08-11T07:58:41;99257.94;;;37.02;17.48
51239;BME280;38154;47.548;18.828;2022-08-11T08:01:27;99239.94;;;36.37;17.68
51239;BME280;38154;47.548;18.828;2022-08-11T08:04:16;99250.44;;;36.22;17.89
51239;BME280;38154;47.548;18.828;2022-08-11T08:07:03;99239.78;;;36.56;17.46
51239;BME280;38154;47.548;18.828;2022-08-11T08:09:49;99241.88;;;36.72;17.68
51239;BME280;38154;47.548;18.828;2022-08-11T08:12:34;99238.28;;;36.72;17.48
51239;BME280;38154;47.548;18.828;2022-08-11T08:15:20;99245.44;;;36.73;17.61
51239;BME280;38154;47.548;18.828;2022-08-11T08:18:06;99234.16;;;36.22;17.96
51239;BME280;38154;47.548;18.828;2022-08-11T08:20:44;99239.22;;;36.99;17.65
51239;BME280;38154;47.548;18.828;2022-08-11T08:23:12;99230.13;;;38.55;16.60
51239;BME280;38154;47.548;18.828;2022-08-11T08:25:39;99237.88;;;39.59;15.62
51239;BME280;38154;47.548;18.828;2022-08-11T08:28:14;99234.50;;;39.24;15.67
51239;BME280;38154;47.548;18.828;2022-08-11T08:30:42;99221.13;;;36.26;17.57
51239;BME280;38154;47.548;18.828;2022-08-11T08:33:30;99225.09;;;36.77;17.32
51239;BME280;38154;47.548;18.828;2022-08-11T08:35:59;99220.47;;;35.76;18.35
51239;BME280;38154;47.548;18.828;2022-08-11T08:38:41;99218.72;;;36.22;18.22
51239;BME280;38154;47.548;18.828;2022-08-11T08:41:09;99220.16;;;34.93;19.24
51239;BME280;38154;47.548;18.828;2022-08-11T08:43:36;99220.91;;;36.09;18.25
51239;BME280;38154;47.548;18.828;2022-08-11T08:46:05;99220.28;;;36.71;18.18
51239;BME280;38154;47.548;18.828;2022-08-11T08:48:33;99232.06;;;37.60;16.77
51239;BME280;38154;47.548;18.828;2022-08-11T08:51:03;99220.22;;;37.43;16.63
51239;BME280;38154;47.548;18.828;2022-08-11T08:53:51;99216.00;;;36.86;16.90
51239;BME280;38154;47.548;18.828;2022-08-11T08:56:19;99210.75;;;35.83;18.26
51239;BME280;38154;47.548;18.828;2022-08-11T08:58:49;99222.13;;;35.40;17.81
51239;BME280;38154;47.548;18.828;2022-08-11T09:01:16;99219.25;;;34.63;19.07
51239;BME280;38154;47.548;18.828;2022-08-11T09:03:45;99215.66;;;33.93;20.28
51239;BME280;38154;47.548;18.828;2022-08-11T09:06:12;99224.50;;;34.35;19.55
51239;BME280;38154;47.548;18.828;2022-08-11T09:08:41;99211.03;;;35.04;18.98
51239;BME280;38154;47.548;18.828;2022-08-11T09:11:09;99205.00;;;36.24;18.09
51239;BME280;38154;47.548;18.828;2022-08-11T09:13:54;99194.31;;;36.58;18.01
51239;BME280;38154;47.548;18.828;2022-08-11T09:16:21;99198.16;;;38.82;16.24
51239;BME280;38154;47.548;18.828;2022-08-11T09:18:50;99214.69;;;38.89;16.48
51239;BME280;38154;47.548;18.828;2022-08-11T09:21:18;99210.19;;;39.78;15.16
51239;BME280;38154;47.548;18.828;2022-08-11T09:23:49;99202.25;;;38.94;15.33
51239;BME280;38154;47.548;18.828;2022-08-11T09:26:36;99199.53;;;38.70;16.80
51239;BME280;38154;47.548;18.828;2022-08-11T09:29:21;99200.72;;;39.33;15.23
51239;BME280;38154;47.548;18.828;2022-08-11T09:31:48;99199.69;;;39.42;15.04
51239;BME280;38154;47.548;18.828;2022-08-11T09:34:14;99190.59;;;38.00;15.87
51239;BME280;38154;47.548;18.828;2022-08-11T09:36:42;99188.31;;;37.79;16.45
51239;BME280;38154;47.548;18.828;2022-08-11T09:39:28;99185.06;;;36.06;17.75
51239;BME280;38154;47.548;18.828;2022-08-11T09:42:13;99195.84;;;34.23;18.40
51239;BME280;38154;47.548;18.828;2022-08-11T09:44:39;99177.66;;;34.74;18.68
51239;BME280;38154;47.548;18.828;2022-08-11T09:47:25;99172.63;;;36.67;16.76
51239;BME280;38154;47.548;18.828;2022-08-11T09:49:55;99173.69;;;34.78;17.65
51239;BME280;38154;47.548;18.828;2022-08-11T09:52:25;99180.31;;;32.90;19.55
51239;BME280;38154;47.548;18.828;2022-08-11T09:54:52;99173.81;;;33.35;19.39
51239;BME280;38154;47.548;18.828;2022-08-11T09:57:20;99170.06;;;33.57;19.72
51239;BME280;38154;47.548;18.828;2022-08-11T10:00:07;99162.97;;;33.97;19.20
51239;BME280;38154;47.548;18.828;2022-08-11T10:02:39;99170.37;;;34.94;18.15
51239;BME280;38154;47.548;18.828;2022-08-11T10:05:07;99171.19;;;34.26;18.87
51239;BME280;38154;47.548;18.828;2022-08-11T10:07:52;99163.97;;;32.16;20.27
51239;BME280;38154;47.548;18.828;2022-08-11T10:10:19;99159.59;;;31.00;22.37
51239;BME280;38154;47.548;18.828;2022-08-11T10:12:55;99152.06;;;31.05;21.91
51239;BME280;38154;47.548;18.828;2022-08-11T10:15:22;99163.56;;;30.11;22.61
51239;BME280;38154;47.548;18.828;2022-08-11T10:18:40;99169.00;;;29.72;23.19
51239;BME280;38154;47.548;18.828;2022-08-11T10:23:58;99157.22;;;28.43;24.78
51239;BME280;38154;47.548;18.828;2022-08-11T10:26:44;99146.03;;;28.09;25.56
51239;BME280;38154;47.548;18.828;2022-08-11T10:29:26;99146.22;;;29.01;24.05
51239;BME280;38154;47.548;18.828;2022-08-11T10:32:12;99139.34;;;31.41;21.04
51239;BME280;38154;47.548;18.828;2022-08-11T10:34:58;99145.69;;;34.29;18.09
51239;BME280;38154;47.548;18.828;2022-08-11T10:37:26;99142.91;;;35.36;16.89
51239;BME280;38154;47.548;18.828;2022-08-11T10:39:59;99140.84;;;34.52;17.89
51239;BME280;38154;47.548;18.828;2022-08-11T10:42:25;99132.91;;;32.86;19.20
51239;BME280;38154;47.548;18.828;2022-08-11T10:45:10;99133.59;;;31.91;19.92
51239;BME280;38154;47.548;18.828;2022-08-11T10:47:56;99133.78;;;30.98;20.86
51239;BME280;38154;47.548;18.828;2022-08-11T10:50:23;99128.62;;;30.35;20.06
51239;BME280;38154;47.548;18.828;2022-08-11T10:53:08;99130.19;;;29.89;21.26
51239;BME280;38154;47.548;18.828;2022-08-11T10:55:53;99132.28;;;29.47;21.46
51239;BME280;38154;47.548;18.828;2022-08-11T10:58:39;99134.47;;;28.63;22.30
51239;BME280;38154;47.548;18.828;2022-08-11T11:01:25;99127.75;;;28.96;22.13
51239;BME280;38154;47.548;18.828;2022-08-11T11:03:55;99122.91;;;31.22;20.34
51239;BME280;38154;47.548;18.828;2022-08-11T11:09:29;99118.09;;;32.16;18.83
51239;BME280;38154;47.548;18.828;2022-08-11T11:12:08;99121.12;;;34.11;17.62
51239;BME280;38154;47.548;18.828;2022-08-11T11:14:54;99110.31;;;35.08;16.30
51239;BME280;38154;47.548;18.828;2022-08-11T11:17:51;99111.16;;;33.09;18.23
51239;BME280;38154;47.548;18.828;2022-08-11T11:20:25;99104.41;;;31.85;20.05
51239;BME280;38154;47.548;18.828;2022-08-11T11:22:54;99105.53;;;31.83;18.99
51239;BME280;38154;47.548;18.828;2022-08-11T11:31:05;99086.44;;;31.52;20.73
51239;BME280;38154;47.548;18.828;2022-08-11T11:34:00;99095.25;;;31.20;20.98
51239;BME280;38154;47.548;18.828;2022-08-11T11:36:47;99086.63;;;30.92;21.47
51239;BME280;38154;47.548;18.828;2022-08-11T11:39:17;99080.72;;;30.87;21.60
51239;BME280;38154;47.548;18.828;2022-08-11T11:41:44;99076.38;;;31.08;21.21
51239;BME280;38154;47.548;18.828;2022-08-11T11:44:11;99072.97;;;30.71;21.86
51239;BME280;38154;47.548;18.828;2022-08-11T11:46:38;99072.63;;;30.87;21.17
51239;BME280;38154;47.548;18.828;2022-08-11T11:49:05;99070.28;;;30.71;21.85
51239;BME280;38154;47.548;18.828;2022-08-11T11:51:36;99061.94;;;31.10;21.51
51239;BME280;38154;47.548;18.828;2022-08-11T11:54:03;99062.87;;;31.88;20.14
51239;BME280;38154;47.548;18.828;2022-08-11T11:56:30;99059.28;;;32.31;20.11
51239;BME280;38154;47.548;18.828;2022-08-11T11:58:57;99058.78;;;32.05;20.17
51239;BME280;38154;47.548;18.828;2022-08-11T12:01:42;99056.19;;;31.59;20.58
51239;BME280;38154;47.548;18.828;2022-08-11T12:04:11;99051.66;;;31.15;21.21
51239;BME280;38154;47.548;18.828;2022-08-11T12:06:40;99050.75;;;30.80;21.00
51239;BME280;38154;47.548;18.828;2022-08-11T12:09:06;99048.41;;;30.76;22.02
51239;BME280;38154;47.548;18.828;2022-08-11T12:11:37;99041.47;;;31.07;20.75
51239;BME280;38154;47.548;18.828;2022-08-11T12:14:21;99047.00;;;31.28;19.54
51239;BME280;38154;47.548;18.828;2022-08-11T12:16:50;99038.41;;;31.68;19.99
51239;BME280;38154;47.548;18.828;2022-08-11T12:19:18;99043.22;;;31.97;19.07
51239;BME280;38154;47.548;18.828;2022-08-11T12:21:47;99027.69;;;32.22;18.99
51239;BME280;38154;47.548;18.828;2022-08-11T12:24:34;99032.03;;;32.13;19.60
51239;BME280;38154;47.548;18.828;2022-08-11T12:27:19;99039.38;;;32.11;19.44
51239;BME280;38154;47.548;18.828;2022-08-11T12:29:48;99029.00;;;31.95;19.11
51239;BME280;38154;47.548;18.828;2022-08-11T12:32:14;99023.63;;;31.84;19.56
51239;BME280;38154;47.548;18.828;2022-08-11T12:34:40;99020.25;;;31.70;19.55
51239;BME280;38154;47.548;18.828;2022-08-11T12:37:07;99020.53;;;31.56;19.91
51239;BME280;38154;47.548;18.828;2022-08-11T12:39:43;99022.62;;;31.41;19.85
51239;BME280;38154;47.548;18.828;2022-08-11T12:42:30;99022.00;;;30.92;19.75
51239;BME280;38154;47.548;18.828;2022-08-11T12:45:16;99012.91;;;30.82;20.09
51239;BME280;38154;47.548;18.828;2022-08-11T12:50:51;99011.00;;;31.18;20.25
51239;BME280;38154;47.548;18.828;2022-08-11T12:53:42;99006.31;;;31.54;19.87
51239;BME280;38154;47.548;18.828;2022-08-11T12:56:10;99005.09;;;31.58;19.88
51239;BME280;38154;47.548;18.828;2022-08-11T12:58:56;98998.69;;;31.59;19.63
51239;BME280;38154;47.548;18.828;2022-08-11T13:01:41;98997.75;;;31.03;19.95
51239;BME280;38154;47.548;18.828;2022-08-11T13:04:27;98994.31;;;30.79;20.34
51239;BME280;38154;47.548;18.828;2022-08-11T13:07:13;98992.81;;;30.52;19.99
51239;BME280;38154;47.548;18.828;2022-08-11T13:09:41;98989.03;;;30.19;21.62
51239;BME280;38154;47.548;18.828;2022-08-11T13:12:08;98988.06;;;30.20;21.88
51239;BME280;38154;47.548;18.828;2022-08-11T13:14:54;98980.22;;;30.52;21.32
51239;BME280;38154;47.548;18.828;2022-08-11T13:17:20;98984.53;;;30.89;20.80
51239;BME280;38154;47.548;18.828;2022-08-11T13:19:48;98984.78;;;31.08;20.47
51239;BME280;38154;47.548;18.828;2022-08-11T13:22:18;98983.62;;;30.55;20.99
51239;BME280;38154;47.548;18.828;2022-08-11T13:24:44;98985.72;;;30.62;21.16
51239;BME280;38154;47.548;18.828;2022-08-11T13:27:11;98985.22;;;30.68;20.66
51239;BME280;38154;47.548;18.828;2022-08-11T13:29:40;98970.06;;;30.56;21.35
51239;BME280;38154;47.548;18.828;2022-08-11T13:32:07;98973.72;;;30.55;22.22
51239;BME280;38154;47.548;18.828;2022-08-11T13:34:34;98967.09;;;30.48;22.05
51239;BME280;38154;47.548;18.828;2022-08-11T13:37:06;98968.22;;;30.45;22.26
51239;BME280;38154;47.548;18.828;2022-08-11T13:39:35;98976.03;;;30.13;23.31
51239;BME280;38154;47.548;18.828;2022-08-11T13:42:03;98969.16;;;29.73;23.17
51239;BME280;38154;47.548;18.828;2022-08-11T13:44:32;98973.59;;;29.62;23.25
51239;BME280;38154;47.548;18.828;2022-08-11T13:47:04;98964.66;;;29.61;23.93
51239;BME280;38154;47.548;18.828;2022-08-11T13:49:36;98963.94;;;29.35;24.28
51239;BME280;38154;47.548;18.828;2022-08-11T13:52:04;98967.31;;;28.48;25.42
51239;BME280;38154;47.548;18.828;2022-08-11T13:54:34;98956.78;;;28.20;25.80
51239;BME280;38154;47.548;18.828;2022-08-11T13:57:07;98968.25;;;28.09;26.20
51239;BME280;38154;47.548;18.828;2022-08-11T13:59:34;98969.03;;;28.37;26.05
51239;BME280;38154;47.548;18.828;2022-08-11T14:02:05;98965.50;;;28.36;25.80
51239;BME280;38154;47.548;18.828;2022-08-11T14:04:44;98958.81;;;28.16;25.99
51239;BME280;38154;47.548;18.828;2022-08-11T14:07:17;98961.12;;;27.68;26.38
51239;BME280;38154;47.548;18.828;2022-08-11T14:09:45;98955.06;;;27.51;26.40
51239;BME280;38154;47.548;18.828;2022-08-11T14:12:16;98955.69;;;27.55;26.45
51239;BME280;38154;47.548;18.828;2022-08-11T14:15:53;98951.88;;;27.59;26.51
51239;BME280;38154;47.548;18.828;2022-08-11T14:18:03;98950.91;;;27.60;26.37
51239;BME280;38154;47.548;18.828;2022-08-11T14:20:31;98931.94;;;27.90;26.63
51239;BME280;38154;47.548;18.828;2022-08-11T14:23:21;98941.00;;;28.15;26.25
51239;BME280;38154;47.548;18.828;2022-08-11T14:25:51;98946.59;;;28.25;26.35
51239;BME280;38154;47.548;18.828;2022-08-11T14:28:37;98946.47;;;28.26;26.45
51239;BME280;38154;47.548;18.828;2022-08-11T14:31:03;98948.59;;;28.08;26.13
51239;BME280;38154;47.548;18.828;2022-08-11T14:33:32;98949.06;;;27.88;26.49
51239;BME280;38154;47.548;18.828;2022-08-11T14:36:01;98954.63;;;27.85;26.63
51239;BME280;38154;47.548;18.828;2022-08-11T14:38:28;98941.50;;;27.94;26.43
51239;BME280;38154;47.548;18.828;2022-08-11T14:40:54;98944.34;;;27.79;26.54
51239;BME280;38154;47.548;18.828;2022-08-11T14:43:39;98948.56;;;27.55;26.49
51239;BME280;38154;47.548;18.828;2022-08-11T14:46:24;98949.09;;;27.61;26.74
51239;BME280;38154;47.548;18.828;2022-08-11T14:49:09;98948.66;;;27.54;26.43
51239;BME280;38154;47.548;18.828;2022-08-11T14:51:37;98949.22;;;27.45;26.73
51239;BME280;38154;47.548;18.828;2022-08-11T14:54:03;98942.56;;;27.37;26.94
51239;BME280;38154;47.548;18.828;2022-08-11T14:56:47;98947.91;;;27.52;27.17
51239;BME280;38154;47.548;18.828;2022-08-11T14:59:13;98943.13;;;27.43;26.73
51239;BME280;38154;47.548;18.828;2022-08-11T15:01:39;98945.25;;;27.23;26.85
51239;BME280;38154;47.548;18.828;2022-08-11T15:04:23;98941.72;;;27.23;26.64
51239;BME280;38154;47.548;18.828;2022-08-11T15:06:49;98943.47;;;27.09;26.69
51239;BME280;38154;47.548;18.828;2022-08-11T15:09:16;98939.03;;;27.23;25.90
51239;BME280;38154;47.548;18.828;2022-08-11T15:11:43;98947.31;;;27.05;26.05
51239;BME280;38154;47.548;18.828;2022-08-11T15:14:28;98938.53;;;26.89;26.01
51239;BME280;38154;47.548;18.828;2022-08-11T15:17:13;98941.13;;;26.90;26.67
51239;BME280;38154;47.548;18.828;2022-08-11T15:19:41;98940.41;;;27.15;26.55
51239;BME280;38154;47.548;18.828;2022-08-11T15:22:27;98941.44;;;27.27;26.28
51239;BME280;38154;47.548;18.828;2022-08-11T15:25:12;98938.84;;;27.26;26.57
51239;BME280;38154;47.548;18.828;2022-08-11T15:27:39;98943.06;;;27.15;26.95
51239;BME280;38154;47.548;18.828;2022-08-11T15:30:25;98938.25;;;26.93;27.28
51239;BME280;38154;47.548;18.828;2022-08-11T15:33:27;98941.59;;;26.82;27.61
51239;BME280;38154;47.548;18.828;2022-08-11T15:36:13;98940.34;;;26.74;27.77
51239;BME280;38154;47.548;18.828;2022-08-11T15:39:03;98933.19;;;26.74;28.50
51239;BME280;38154;47.548;18.828;2022-08-11T15:41:40;98932.72;;;26.82;28.02
51239;BME280;38154;47.548;18.828;2022-08-11T15:44:29;98930.88;;;26.82;27.90
51239;BME280;38154;47.548;18.828;2022-08-11T15:47:17;98935.84;;;26.74;27.79
51239;BME280;38154;47.548;18.828;2022-08-11T15:49:45;98933.53;;;26.54;27.99
51239;BME280;38154;47.548;18.828;2022-08-11T15:52:20;98928.94;;;26.27;28.36
51239;BME280;38154;47.548;18.828;2022-08-11T15:54:48;98925.22;;;26.29;28.72
51239;BME280;38154;47.548;18.828;2022-08-11T15:57:16;98930.00;;;26.39;28.35
51239;BME280;38154;47.548;18.828;2022-08-11T16:00:03;98931.16;;;26.35;28.02
51239;BME280;38154;47.548;18.828;2022-08-11T16:02:49;98923.09;;;26.20;28.53
51239;BME280;38154;47.548;18.828;2022-08-11T16:05:20;98921.94;;;26.10;27.93
51239;BME280;38154;47.548;18.828;2022-08-11T16:07:48;98915.44;;;26.14;28.51
51239;BME280;38154;47.548;18.828;2022-08-11T16:10:17;98922.69;;;26.12;28.41
51239;BME280;38154;47.548;18.828;2022-08-11T16:12:51;98915.84;;;26.08;28.41
51239;BME280;38154;47.548;18.828;2022-08-11T16:15:48;98922.78;;;26.10;29.24
51239;BME280;38154;47.548;18.828;2022-08-11T16:18:52;98925.94;;;26.03;28.63
51239;BME280;38154;47.548;18.828;2022-08-11T16:21:39;98915.34;;;25.85;28.69
51239;BME280;38154;47.548;18.828;2022-08-11T16:24:10;98917.25;;;25.83;28.94
51239;BME280;38154;47.548;18.828;2022-08-11T16:26:40;98915.12;;;25.74;29.24
51239;BME280;38154;47.548;18.828;2022-08-11T16:29:07;98914.53;;;25.69;29.28
51239;BME280;38154;47.548;18.828;2022-08-11T16:31:35;98916.56;;;25.49;29.59
51239;BME280;38154;47.548;18.828;2022-08-11T16:34:03;98924.56;;;25.49;29.83
51239;BME280;38154;47.548;18.828;2022-08-11T16:36:30;98917.50;;;25.48;30.09
51239;BME280;38154;47.548;18.828;2022-08-11T16:39:15;98913.63;;;25.54;30.36
51239;BME280;38154;47.548;18.828;2022-08-11T16:41:44;98916.56;;;25.49;30.88
51239;BME280;38154;47.548;18.828;2022-08-11T16:44:31;98916.31;;;25.38;31.67